AFR68AZ LFLL-LFPG
Flight info
| Callsign | AFR68AZ |
|---|---|
| Flight time | 0h 54m |
| Altitude | 30000 |
| Route | MOKIP DCT ARFOZ DCT TINIL |
| Aircraft | A20N/M-SDE2E3FGHIRWXY/LB1 |
Departure
| Time | 2026-05-04 07:19 |
|---|---|
| Airport | Lyon Saint-Exupéry Airport (LFLL) |
Arrival
| Time | 2026-05-04 08:13 |
|---|---|
| Airport | Charles de Gaulle International Airport (LFPG) |
| Time | Latitude | Longitude | Altitude | Speed | Heading |
|---|---|---|---|---|---|
| 2026-05-04 06:57 | 45.71974 | 5.08041 | 0 ft | 0 kts | 254° |
| 2026-05-04 07:08 | 45.71974 | 5.08045 | 0 ft | 3 kts | 255° |
| 2026-05-04 07:09 | 45.71980 | 5.08083 | 419 ft | 4 kts | 264° |
| 2026-05-04 07:09 | 45.71982 | 5.08122 | 809 ft | 4 kts | 272° |
| 2026-05-04 07:09 | 45.71979 | 5.08160 | 809 ft | 4 kts | 281° |
| 2026-05-04 07:09 | 45.71974 | 5.08194 | 809 ft | 4 kts | 295° |
| 2026-05-04 07:10 | 45.71958 | 5.08220 | 809 ft | 4 kts | 349° |
| 2026-05-04 07:10 | 45.71933 | 5.08217 | 809 ft | 4 kts | 20° |
| 2026-05-04 07:12 | 45.71913 | 5.08206 | 810 ft | 0 kts | 15° |
| 2026-05-04 07:13 | 45.71925 | 5.08211 | 810 ft | 5 kts | 15° |
| 2026-05-04 07:13 | 45.72093 | 5.08278 | 807 ft | 33 kts | 14° |
| 2026-05-04 07:13 | 45.72271 | 5.08352 | 804 ft | 20 kts | 40° |
| 2026-05-04 07:14 | 45.72793 | 5.08364 | 796 ft | 21 kts | 354° |
| 2026-05-04 07:14 | 45.72940 | 5.08338 | 794 ft | 22 kts | 353° |
| 2026-05-04 07:15 | 45.73092 | 5.08310 | 791 ft | 22 kts | 353° |
| 2026-05-04 07:15 | 45.73250 | 5.08296 | 789 ft | 23 kts | 357° |
| 2026-05-04 07:15 | 45.73411 | 5.08281 | 786 ft | 24 kts | 356° |
| 2026-05-04 07:15 | 45.73574 | 5.08266 | 784 ft | 24 kts | 356° |
| 2026-05-04 07:16 | 45.73740 | 5.08248 | 782 ft | 24 kts | 355° |
| 2026-05-04 07:16 | 45.73900 | 5.08225 | 780 ft | 17 kts | 354° |
| 2026-05-04 07:16 | 45.74022 | 5.08212 | 778 ft | 18 kts | 5° |
| 2026-05-04 07:16 | 45.74150 | 5.08251 | 775 ft | 20 kts | 14° |
| 2026-05-04 07:17 | 45.74291 | 5.08304 | 773 ft | 23 kts | 15° |
| 2026-05-04 07:17 | 45.74441 | 5.08362 | 770 ft | 22 kts | 15° |
| 2026-05-04 07:17 | 45.74589 | 5.08411 | 768 ft | 16 kts | 21° |
| 2026-05-04 07:17 | 45.74647 | 5.08494 | 767 ft | 12 kts | 63° |
| 2026-05-04 07:18 | 45.74620 | 5.08597 | 769 ft | 12 kts | 148° |
| 2026-05-04 07:18 | 45.74545 | 5.08624 | 771 ft | 12 kts | 171° |
| 2026-05-04 07:18 | 45.74151 | 5.08659 | 775 ft | 105 kts | 173° |
| 2026-05-04 07:18 | 45.73156 | 5.08772 | 826 ft | 175 kts | 175° |
| 2026-05-04 07:19 | 45.71933 | 5.08905 | 1772 ft | 175 kts | 173° |
| 2026-05-04 07:19 | 45.70714 | 5.09068 | 2860 ft | 179 kts | 173° |
| 2026-05-04 07:19 | 45.69407 | 5.09234 | 3573 ft | 198 kts | 170° |
| 2026-05-04 07:19 | 45.67986 | 5.09385 | 4315 ft | 210 kts | 169° |
| 2026-05-04 07:20 | 45.66522 | 5.09529 | 5392 ft | 208 kts | 169° |
| 2026-05-04 07:20 | 45.65107 | 5.09681 | 6676 ft | 202 kts | 169° |
| 2026-05-04 07:20 | 45.63718 | 5.09877 | 7768 ft | 202 kts | 164° |
| 2026-05-04 07:20 | 45.62402 | 5.10609 | 8752 ft | 207 kts | 150° |
| 2026-05-04 07:22 | 45.66877 | 5.20511 | 14870 ft | 278 kts | 352° |
| 2026-05-04 07:22 | 45.68810 | 5.20298 | 15761 ft | 280 kts | 352° |
| 2026-05-04 07:23 | 45.70762 | 5.20132 | 16601 ft | 282 kts | 354° |
| 2026-05-04 07:23 | 45.72728 | 5.20029 | 17420 ft | 284 kts | 355° |
| 2026-05-04 07:23 | 45.74703 | 5.19826 | 18210 ft | 284 kts | 345° |
| 2026-05-04 07:23 | 45.76557 | 5.18923 | 18943 ft | 282 kts | 328° |
| 2026-05-04 07:24 | 45.78275 | 5.17490 | 19451 ft | 295 kts | 325° |
| 2026-05-04 07:24 | 45.80107 | 5.15934 | 19651 ft | 318 kts | 326° |
| 2026-05-04 07:24 | 45.82084 | 5.14268 | 19858 ft | 341 kts | 326° |
| 2026-05-04 07:24 | 45.84192 | 5.12503 | 20060 ft | 362 kts | 326° |
| 2026-05-04 07:25 | 45.86434 | 5.10630 | 20260 ft | 382 kts | 326° |
| 2026-05-04 07:26 | 46.05438 | 5.03455 | 24435 ft | 427 kts | 349° |
| 2026-05-04 07:27 | 46.08392 | 5.02915 | 25022 ft | 430 kts | 349° |
| 2026-05-04 07:27 | 46.11375 | 5.02370 | 25585 ft | 433 kts | 349° |
| 2026-05-04 07:27 | 46.14380 | 5.01822 | 26144 ft | 436 kts | 349° |
| 2026-05-04 07:27 | 46.17400 | 5.01270 | 26666 ft | 439 kts | 349° |
| 2026-05-04 07:28 | 46.20442 | 5.00714 | 27187 ft | 442 kts | 349° |
| 2026-05-04 07:28 | 46.23500 | 5.00154 | 27684 ft | 445 kts | 349° |
| 2026-05-04 07:28 | 46.26584 | 4.99589 | 28146 ft | 448 kts | 349° |
| 2026-05-04 07:28 | 46.29702 | 4.99220 | 28570 ft | 454 kts | 358° |
| 2026-05-04 07:29 | 46.32866 | 4.99779 | 29006 ft | 462 kts | 11° |
| 2026-05-04 07:29 | 46.34907 | 5.00690 | 29274 ft | 467 kts | 19° |
| 2026-05-04 07:29 | 46.38787 | 5.03631 | 29790 ft | 474 kts | 29° |
| 2026-05-04 07:29 | 46.40649 | 5.05315 | 29949 ft | 476 kts | 30° |
| 2026-05-04 07:30 | 46.43561 | 5.07544 | 30023 ft | 473 kts | 19° |
| 2026-05-04 07:30 | 46.46695 | 5.08910 | 30030 ft | 468 kts | 7° |
| 2026-05-04 07:30 | 46.53127 | 5.09392 | 30024 ft | 463 kts | 356° |
| 2026-05-04 07:31 | 46.59561 | 5.09428 | 30017 ft | 462 kts | 356° |
| 2026-05-04 07:33 | 46.85657 | 5.09528 | 30047 ft | 470 kts | 358° |
| 2026-05-04 07:33 | 46.92202 | 5.09557 | 30048 ft | 470 kts | 358° |
| 2026-05-04 07:34 | 46.98705 | 5.09586 | 30047 ft | 470 kts | 358° |
| 2026-05-04 07:34 | 47.05252 | 5.09615 | 30047 ft | 470 kts | 358° |
| 2026-05-04 07:35 | 47.11795 | 5.09645 | 30048 ft | 471 kts | 358° |
| 2026-05-04 07:35 | 47.18350 | 5.09674 | 30047 ft | 470 kts | 358° |
| 2026-05-04 07:36 | 47.24890 | 5.09703 | 29749 ft | 469 kts | 358° |
| 2026-05-04 07:38 | 47.47521 | 5.09806 | 27993 ft | 459 kts | 359° |
| 2026-05-04 07:38 | 47.50703 | 5.09820 | 27733 ft | 456 kts | 359° |
| 2026-05-04 07:38 | 47.53866 | 5.09835 | 27493 ft | 454 kts | 359° |
| 2026-05-04 07:38 | 47.56999 | 5.09465 | 27240 ft | 449 kts | 346° |
| 2026-05-04 07:39 | 47.59955 | 5.08087 | 26991 ft | 443 kts | 333° |
| 2026-05-04 07:39 | 47.62574 | 5.05771 | 26738 ft | 437 kts | 319° |
| 2026-05-04 07:39 | 47.64891 | 5.02877 | 26496 ft | 434 kts | 315° |
| 2026-05-04 07:39 | 47.67120 | 4.99883 | 26247 ft | 433 kts | 315° |
| 2026-05-04 07:40 | 47.69357 | 4.96897 | 25996 ft | 431 kts | 316° |
| 2026-05-04 07:40 | 47.71599 | 4.93973 | 25746 ft | 429 kts | 316° |
| 2026-05-04 07:40 | 47.73859 | 4.91080 | 25499 ft | 427 kts | 317° |
| 2026-05-04 07:40 | 47.76110 | 4.88221 | 25318 ft | 426 kts | 317° |
| 2026-05-04 07:41 | 47.78359 | 4.85368 | 25165 ft | 425 kts | 317° |
| 2026-05-04 07:41 | 47.80604 | 4.82519 | 24997 ft | 424 kts | 317° |
| 2026-05-04 07:41 | 47.82841 | 4.79679 | 24850 ft | 422 kts | 317° |
| 2026-05-04 07:41 | 47.85051 | 4.76877 | 24696 ft | 424 kts | 316° |
| 2026-05-04 07:42 | 47.87320 | 4.73992 | 24538 ft | 423 kts | 316° |
| 2026-05-04 07:42 | 47.89521 | 4.71188 | 24387 ft | 420 kts | 316° |
| 2026-05-04 07:42 | 47.91737 | 4.68359 | 24235 ft | 419 kts | 316° |
| 2026-05-04 07:42 | 47.93949 | 4.65532 | 24079 ft | 418 kts | 316° |
| 2026-05-04 07:43 | 47.96182 | 4.62675 | 23916 ft | 417 kts | 316° |
| 2026-05-04 07:43 | 47.98350 | 4.59899 | 23768 ft | 417 kts | 315° |
| 2026-05-04 07:43 | 48.00548 | 4.57081 | 23614 ft | 415 kts | 315° |
| 2026-05-04 07:43 | 48.02737 | 4.54271 | 23463 ft | 414 kts | 315° |
| 2026-05-04 07:44 | 48.04922 | 4.51464 | 23307 ft | 413 kts | 315° |
| 2026-05-04 07:44 | 48.07101 | 4.48660 | 23155 ft | 412 kts | 315° |
| 2026-05-04 07:44 | 48.09271 | 4.45866 | 23001 ft | 412 kts | 315° |
| 2026-05-04 07:44 | 48.11440 | 4.43068 | 22733 ft | 411 kts | 315° |
| 2026-05-04 07:45 | 48.13595 | 4.40286 | 22431 ft | 408 kts | 315° |
| 2026-05-04 07:45 | 48.15734 | 4.37523 | 22135 ft | 405 kts | 315° |
| 2026-05-04 07:45 | 48.17864 | 4.34767 | 21829 ft | 403 kts | 315° |
| 2026-05-04 07:45 | 48.19981 | 4.32025 | 21533 ft | 402 kts | 315° |
| 2026-05-04 07:46 | 48.22089 | 4.29290 | 21237 ft | 400 kts | 315° |
| 2026-05-04 07:46 | 48.24187 | 4.26566 | 20942 ft | 398 kts | 315° |
| 2026-05-04 07:46 | 48.26219 | 4.23774 | 20647 ft | 394 kts | 310° |
| 2026-05-04 07:46 | 48.28001 | 4.20679 | 20334 ft | 392 kts | 304° |
| 2026-05-04 07:47 | 48.29727 | 4.17514 | 20044 ft | 391 kts | 305° |
| 2026-05-04 07:47 | 48.31455 | 4.14370 | 19747 ft | 389 kts | 305° |
| 2026-05-04 07:47 | 48.33172 | 4.11250 | 19467 ft | 386 kts | 305° |
| 2026-05-04 07:49 | 48.44914 | 3.89763 | 17495 ft | 375 kts | 304° |
| 2026-05-04 07:49 | 48.46560 | 3.86734 | 17222 ft | 374 kts | 304° |
| 2026-05-04 07:49 | 48.48205 | 3.83706 | 16940 ft | 372 kts | 304° |
| 2026-05-04 07:50 | 48.49843 | 3.80687 | 16675 ft | 371 kts | 304° |
| 2026-05-04 07:50 | 48.51469 | 3.77685 | 16400 ft | 369 kts | 304° |
| 2026-05-04 07:50 | 48.53089 | 3.74692 | 16128 ft | 368 kts | 304° |
| 2026-05-04 07:50 | 48.54595 | 3.71598 | 15875 ft | 363 kts | 297° |
| 2026-05-04 07:51 | 48.55954 | 3.68401 | 15650 ft | 363 kts | 298° |
| 2026-05-04 07:51 | 48.57327 | 3.65209 | 15427 ft | 362 kts | 298° |
| 2026-05-04 07:51 | 48.58698 | 3.62025 | 15193 ft | 361 kts | 298° |
| 2026-05-04 07:51 | 48.60053 | 3.58877 | 14968 ft | 355 kts | 298° |
| 2026-05-04 07:52 | 48.61393 | 3.55761 | 14746 ft | 352 kts | 298° |
| 2026-05-04 07:52 | 48.62726 | 3.52649 | 14525 ft | 353 kts | 298° |
| 2026-05-04 07:52 | 48.64054 | 3.49544 | 14307 ft | 351 kts | 298° |
| 2026-05-04 07:52 | 48.65379 | 3.46444 | 14079 ft | 350 kts | 298° |
| 2026-05-04 07:53 | 48.66696 | 3.43362 | 13864 ft | 348 kts | 298° |
| 2026-05-04 07:54 | 48.75741 | 3.22081 | 12353 ft | 339 kts | 298° |
| 2026-05-04 07:55 | 48.77011 | 3.19080 | 12140 ft | 337 kts | 298° |
| 2026-05-04 07:55 | 48.78272 | 3.16095 | 11929 ft | 336 kts | 298° |
| 2026-05-04 07:55 | 48.79514 | 3.13152 | 11704 ft | 335 kts | 298° |
| 2026-05-04 07:55 | 48.80765 | 3.10187 | 11511 ft | 333 kts | 298° |
| 2026-05-04 07:56 | 48.82013 | 3.07223 | 11301 ft | 332 kts | 298° |
| 2026-05-04 07:56 | 48.83252 | 3.04278 | 11093 ft | 332 kts | 298° |
| 2026-05-04 07:56 | 48.84536 | 3.01369 | 10880 ft | 332 kts | 303° |
| 2026-05-04 07:56 | 48.86060 | 2.98721 | 10669 ft | 332 kts | 309° |
| 2026-05-04 07:57 | 48.87090 | 2.97034 | 10617 ft | 325 kts | 308° |
| 2026-05-04 07:57 | 48.88587 | 2.94571 | 10503 ft | 312 kts | 308° |
| 2026-05-04 07:57 | 48.89947 | 2.92322 | 10392 ft | 299 kts | 308° |
| 2026-05-04 07:57 | 48.91338 | 2.90013 | 10138 ft | 291 kts | 308° |
| 2026-05-04 07:58 | 48.92676 | 2.87727 | 9760 ft | 285 kts | 302° |
| 2026-05-04 07:58 | 48.93498 | 2.85106 | 9582 ft | 272 kts | 279° |
| 2026-05-04 07:58 | 48.93590 | 2.82263 | 9418 ft | 270 kts | 263° |
| 2026-05-04 07:58 | 48.93434 | 2.79421 | 9241 ft | 268 kts | 262° |
| 2026-05-04 07:59 | 48.93280 | 2.76602 | 9079 ft | 268 kts | 262° |
| 2026-05-04 07:59 | 48.93129 | 2.73785 | 8909 ft | 267 kts | 262° |
| 2026-05-04 07:59 | 48.92982 | 2.71026 | 8746 ft | 267 kts | 263° |
| 2026-05-04 07:59 | 48.92832 | 2.68208 | 8567 ft | 267 kts | 263° |
| 2026-05-04 08:00 | 48.92685 | 2.65431 | 8411 ft | 266 kts | 262° |
| 2026-05-04 08:00 | 48.92535 | 2.62596 | 8241 ft | 266 kts | 262° |
| 2026-05-04 08:00 | 48.92386 | 2.59829 | 8078 ft | 266 kts | 262° |
| 2026-05-04 08:02 | 48.91319 | 2.40355 | 6924 ft | 263 kts | 263° |
| 2026-05-04 08:02 | 48.91165 | 2.37592 | 6750 ft | 262 kts | 263° |
| 2026-05-04 08:02 | 48.91012 | 2.34857 | 6586 ft | 262 kts | 263° |
| 2026-05-04 08:03 | 48.90857 | 2.32109 | 6423 ft | 261 kts | 263° |
| 2026-05-04 08:03 | 48.90700 | 2.29351 | 6258 ft | 261 kts | 263° |
| 2026-05-04 08:03 | 48.90544 | 2.26610 | 6086 ft | 260 kts | 263° |
| 2026-05-04 08:03 | 48.90388 | 2.23873 | 5932 ft | 260 kts | 263° |
| 2026-05-04 08:04 | 48.90233 | 2.21166 | 5768 ft | 259 kts | 263° |
| 2026-05-04 08:04 | 48.90076 | 2.18439 | 5609 ft | 258 kts | 263° |
| 2026-05-04 08:04 | 48.89919 | 2.15723 | 5445 ft | 258 kts | 263° |
| 2026-05-04 08:04 | 48.89761 | 2.13010 | 5284 ft | 258 kts | 263° |
| 2026-05-04 08:05 | 48.89603 | 2.10328 | 5177 ft | 257 kts | 264° |
| 2026-05-04 08:05 | 48.89847 | 2.07704 | 5099 ft | 263 kts | 289° |
| 2026-05-04 08:05 | 48.90885 | 2.05484 | 5021 ft | 269 kts | 316° |
| 2026-05-04 08:05 | 48.92582 | 2.04167 | 4952 ft | 281 kts | 345° |
| 2026-05-04 08:06 | 48.94666 | 2.04031 | 4898 ft | 319 kts | 1° |
| 2026-05-04 08:06 | 48.96853 | 2.04570 | 4814 ft | 318 kts | 21° |
| 2026-05-04 08:06 | 48.98588 | 2.06477 | 4738 ft | 303 kts | 52° |
| 2026-05-04 08:06 | 48.99394 | 2.09288 | 4661 ft | 284 kts | 86° |
| 2026-05-04 08:08 | 48.97681 | 2.26412 | 4088 ft | 202 kts | 90° |
| 2026-05-04 08:08 | 48.97790 | 2.28538 | 3928 ft | 205 kts | 89° |
| 2026-05-04 08:10 | 48.98627 | 2.44181 | 1946 ft | 152 kts | 86° |
| 2026-05-04 08:11 | 48.98711 | 2.45742 | 1743 ft | 144 kts | 86° |
| 2026-05-04 08:11 | 48.98867 | 2.48668 | 1384 ft | 141 kts | 86° |
| 2026-05-04 08:11 | 48.98948 | 2.50179 | 1196 ft | 144 kts | 86° |
| 2026-05-04 08:12 | 48.99029 | 2.51686 | 1005 ft | 141 kts | 86° |
| 2026-05-04 08:12 | 48.99105 | 2.53098 | 834 ft | 131 kts | 86° |
| 2026-05-04 08:12 | 48.99177 | 2.54445 | 656 ft | 123 kts | 85° |
| 2026-05-04 08:12 | 48.99247 | 2.55770 | 492 ft | 128 kts | 85° |
| 2026-05-04 08:13 | 48.99320 | 2.57120 | 352 ft | 123 kts | 85° |
| 2026-05-04 08:13 | 48.99368 | 2.58009 | 356 ft | 47 kts | 85° |
| 2026-05-04 08:13 | 48.99431 | 2.58527 | 358 ft | 58 kts | 66° |
| 2026-05-04 08:13 | 48.99562 | 2.59007 | 357 ft | 28 kts | 49° |
| 2026-05-04 08:14 | 48.99615 | 2.59210 | 355 ft | 22 kts | 93° |
| 2026-05-04 08:14 | 48.99615 | 2.59460 | 358 ft | 25 kts | 84° |
| 2026-05-04 08:14 | 48.99623 | 2.59555 | 357 ft | 2 kts | 81° |
| 2026-05-04 08:16 | 49.00443 | 2.59583 | 357 ft | 24 kts | 351° |
| 2026-05-04 08:16 | 49.00617 | 2.59546 | 356 ft | 26 kts | 352° |
| 2026-05-04 08:16 | 49.00799 | 2.59544 | 353 ft | 20 kts | 5° |
| 2026-05-04 08:17 | 49.00884 | 2.59463 | 356 ft | 17 kts | 286° |
| 2026-05-04 08:17 | 49.00883 | 2.59279 | 354 ft | 20 kts | 264° |
| 2026-05-04 08:17 | 49.00870 | 2.59053 | 354 ft | 23 kts | 265° |
| 2026-05-04 08:17 | 49.00856 | 2.58812 | 356 ft | 24 kts | 264° |
| 2026-05-04 08:19 | 49.00683 | 2.58022 | 353 ft | 0 kts | 257° |